createdAt,value
2022-08-27T00:00:54.697Z,89.20
2022-08-27T00:03:23.861Z,89.05
2022-08-27T00:05:53.044Z,89.20
2022-08-27T00:08:22.256Z,88.97
2022-08-27T00:10:53.250Z,89.13
2022-08-27T00:13:22.511Z,89.40
2022-08-27T00:15:51.677Z,89.01
2022-08-27T00:18:22.777Z,89.13
2022-08-27T00:20:52.673Z,88.85
2022-08-27T00:23:21.872Z,88.81
2022-08-27T06:28:03.304Z,80.05
2022-08-27T06:30:35.883Z,77.46
2022-08-27T06:33:05.174Z,77.72
2022-08-27T06:35:36.748Z,77.41
2022-08-27T06:38:06.056Z,77.21
2022-08-27T06:40:35.321Z,76.96
2022-08-27T06:43:06.044Z,76.63
2022-08-27T06:45:38.928Z,76.79
2022-08-27T06:48:08.504Z,77.46
2022-08-27T06:50:40.826Z,76.96
2022-08-27T06:53:10.143Z,76.46
2022-08-27T06:55:44.197Z,74.26
2022-08-27T06:58:15.553Z,74.89
2022-08-27T07:00:48.874Z,74.48
2022-08-27T07:03:18.332Z,74.45
2022-08-27T07:05:47.635Z,73.22
2022-08-27T07:08:16.799Z,73.44
2022-08-27T07:10:46.117Z,73.72
2022-08-27T07:13:17.290Z,73.08
2022-08-27T07:15:46.532Z,73.50
2022-08-27T07:18:18.877Z,74.16
2022-08-27T07:20:56.884Z,73.13
2022-08-27T07:23:26.109Z,73.14
2022-08-27T07:25:55.350Z,73.84
2022-08-27T07:28:26.366Z,73.54
2022-08-27T07:30:56.109Z,72.73
2022-08-27T07:33:25.641Z,72.70
2022-08-27T07:35:55.422Z,73.40
2022-08-27T07:38:24.928Z,72.76
2022-08-27T07:40:54.122Z,71.67
2022-08-27T07:43:40.647Z,72.05
2022-08-27T07:46:11.569Z,71.23
2022-08-27T07:48:40.819Z,69.84
2022-08-27T07:51:17.713Z,69.12
2022-08-27T07:53:47.497Z,70.65
2022-08-27T07:56:17.224Z,70.44
2022-08-27T07:58:46.989Z,69.27
2022-08-27T08:01:17.881Z,68.50
2022-08-27T08:03:47.332Z,68.99
2022-08-27T08:06:18.444Z,69.20
2022-08-27T08:08:47.671Z,68.79
2022-08-27T08:11:20.151Z,68.01
2022-08-27T08:13:49.951Z,68.39
2022-08-27T08:16:21.338Z,68.05
2022-08-27T08:18:50.628Z,67.39
2022-08-27T08:21:20.027Z,67.42
2022-08-27T08:23:49.722Z,68.03
2022-08-27T08:26:19.013Z,68.50
2022-08-27T08:28:48.210Z,68.17
2022-08-27T08:31:17.549Z,67.81
2022-08-27T08:33:49.094Z,65.26
2022-08-27T08:36:19.836Z,65.31
2022-08-27T08:38:51.324Z,65.35
2022-08-27T08:41:42.657Z,63.38
2022-08-27T08:44:18.742Z,64.18
2022-08-27T08:46:52.490Z,64.13
2022-08-27T08:49:35.144Z,63.93
2022-08-27T08:52:30.426Z,63.85
2022-08-27T08:55:10.495Z,63.66
2022-08-27T08:57:45.615Z,62.91
2022-08-27T09:00:16.015Z,62.89
2022-08-27T09:02:53.064Z,63.74
2022-08-27T09:05:27.571Z,62.75
2022-08-27T09:08:32.316Z,62.43
2022-08-27T09:11:05.444Z,62.40
2022-08-27T09:13:39.631Z,61.54
2022-08-27T09:16:09.354Z,62.17
2022-08-27T09:18:42.869Z,61.83
2022-08-27T09:21:33.015Z,62.04
2022-08-27T09:24:09.725Z,63.17
2022-08-27T09:26:42.397Z,61.34
2022-08-27T09:29:17.725Z,62.45
2022-08-27T09:31:49.837Z,58.72
2022-08-27T09:34:19.081Z,57.97
2022-08-27T09:37:01.314Z,57.09
2022-08-27T09:39:34.892Z,57.68
2022-08-27T09:42:06.126Z,58.58
2022-08-27T09:44:50.265Z,59.21
2022-08-27T09:47:22.429Z,58.92
2022-08-27T09:50:02.015Z,59.43
2022-08-27T09:52:48.979Z,59.27
2022-08-27T09:55:29.845Z,59.13
2022-08-27T09:58:00.277Z,58.78
2022-08-27T10:00:38.088Z,58.67
2022-08-27T10:03:09.184Z,59.44
2022-08-27T10:05:43.997Z,59.82
2022-08-27T10:08:23.973Z,60.01
2022-08-27T10:11:00.497Z,59.73
2022-08-27T10:13:35.842Z,59.96
2022-08-27T10:16:20.843Z,59.70
2022-08-27T10:19:01.393Z,59.95
2022-08-27T10:21:41.807Z,59.70
2022-08-27T10:24:25.412Z,60.06
2022-08-27T10:27:06.939Z,60.08
2022-08-27T10:29:51.505Z,60.37
2022-08-27T10:32:34.563Z,60.25
2022-08-27T10:35:11.583Z,60.49
2022-08-27T10:37:52.722Z,60.31
2022-08-27T10:40:33.084Z,60.64
2022-08-27T10:43:15.641Z,60.46
2022-08-27T10:45:54.565Z,60.36
2022-08-27T10:48:41.970Z,60.84
2022-08-27T10:51:18.092Z,60.82
2022-08-27T10:53:56.270Z,61.41
2022-08-27T10:56:33.745Z,61.49
2022-08-27T10:59:25.045Z,61.22
2022-08-27T11:02:06.291Z,61.38
2022-08-27T11:04:41.053Z,60.86
2022-08-27T11:07:16.860Z,61.69
2022-08-27T11:09:56.665Z,61.39
2022-08-27T11:12:35.525Z,61.17
2022-08-27T11:15:13.114Z,61.92
2022-08-27T11:17:47.217Z,61.72
2022-08-27T11:20:21.040Z,61.75
2022-08-27T11:22:55.285Z,61.84
2022-08-27T11:25:40.922Z,61.78
2022-08-27T11:28:16.383Z,61.50
2022-08-27T11:30:58.134Z,61.38
2022-08-27T11:33:34.434Z,62.31
2022-08-27T11:36:26.568Z,62.39
2022-08-27T11:39:04.906Z,62.45
2022-08-27T11:41:52.860Z,62.60
2022-08-27T11:44:32.429Z,62.16
2022-08-27T11:47:13.196Z,62.80
2022-08-27T11:49:48.044Z,63.05
2022-08-27T11:52:27.028Z,63.23
2022-08-27T11:55:13.231Z,63.14
2022-08-27T11:57:46.116Z,63.15
2022-08-27T12:00:25.062Z,63.64
2022-08-27T12:03:07.359Z,63.69
2022-08-27T12:05:44.820Z,63.80
2022-08-27T12:08:28.459Z,63.75
2022-08-27T12:11:10.153Z,63.76
2022-08-27T12:13:45.436Z,63.50
2022-08-27T12:16:27.820Z,63.90
2022-08-27T12:19:10.313Z,63.90
2022-08-27T12:21:50.048Z,64.16
2022-08-27T12:24:44.118Z,63.67
2022-08-27T12:27:28.651Z,63.62
2022-08-27T12:30:03.074Z,63.72
2022-08-27T12:32:36.198Z,63.95
2022-08-27T12:35:13.143Z,64.08
2022-08-27T12:37:57.736Z,64.17
2022-08-27T12:40:28.704Z,64.12
2022-08-27T12:43:09.153Z,64.52
2022-08-27T12:45:46.127Z,64.36
2022-08-27T12:48:23.923Z,64.39
2022-08-27T12:50:55.027Z,64.56
2022-08-27T12:53:43.220Z,64.75
2022-08-27T12:56:46.453Z,64.90
2022-08-27T12:59:41.308Z,65.32
2022-08-27T13:02:25.304Z,65.23
2022-08-27T13:04:58.058Z,65.25
2022-08-27T13:07:37.794Z,65.28
2022-08-27T13:10:19.743Z,65.44
2022-08-27T13:13:02.341Z,65.51
2022-08-27T13:15:31.874Z,65.44
2022-08-27T13:18:02.353Z,65.66
2022-08-27T13:20:33.666Z,65.55
2022-08-27T13:23:03.141Z,65.67
2022-08-27T13:25:34.206Z,65.96
2022-08-27T13:28:09.805Z,66.08
2022-08-27T13:30:40.273Z,66.16
2022-08-27T13:33:13.168Z,66.14
2022-08-27T13:35:47.932Z,66.38
2022-08-27T13:38:18.097Z,66.56
2022-08-27T13:40:57.486Z,66.60
2022-08-27T13:43:34.315Z,66.74
2022-08-27T13:46:07.679Z,66.87
2022-08-27T13:48:38.227Z,67.17
2022-08-27T13:51:09.692Z,67.02
2022-08-27T13:54:01.529Z,67.08
2022-08-27T13:56:33.498Z,67.07
2022-08-27T13:59:24.821Z,67.18
2022-08-27T14:01:59.221Z,67.32
2022-08-27T14:04:39.229Z,67.38
2022-08-27T14:07:18.005Z,67.53
2022-08-27T14:09:54.669Z,67.42
2022-08-27T14:12:33.232Z,67.47
2022-08-27T14:15:17.643Z,67.26
2022-08-27T14:17:50.014Z,67.16
2022-08-27T14:20:46.219Z,66.94
2022-08-27T14:23:17.949Z,67.11
2022-08-27T14:25:49.115Z,67.24
2022-08-27T14:28:18.480Z,66.86
2022-08-27T14:30:49.279Z,66.85
2022-08-27T14:33:21.735Z,66.83
2022-08-27T14:35:54.186Z,66.75
2022-08-27T14:38:32.074Z,66.55
2022-08-27T14:41:01.657Z,66.55
2022-08-27T14:43:31.244Z,66.18
2022-08-27T14:46:04.333Z,66.33
2022-08-27T14:48:39.133Z,66.50
2022-08-27T14:51:17.945Z,66.53
2022-08-27T14:53:51.588Z,66.11
2022-08-27T14:56:22.181Z,66.40
2022-08-27T14:58:54.065Z,66.38
2022-08-27T15:01:26.723Z,66.31
2022-08-27T15:03:57.109Z,66.40
2022-08-27T15:06:30.100Z,66.40
2022-08-27T15:09:06.809Z,66.60
2022-08-27T15:11:39.572Z,66.78
2022-08-27T15:14:16.828Z,66.56
2022-08-27T15:16:46.154Z,66.65
2022-08-27T15:19:16.045Z,66.60
2022-08-27T15:21:48.934Z,66.45
2022-08-27T15:24:24.993Z,66.66
2022-08-27T15:26:59.230Z,66.66
2022-08-27T15:29:32.188Z,66.81
2022-08-27T15:32:01.567Z,66.82
2022-08-27T15:34:32.170Z,67.08
2022-08-27T15:37:04.669Z,66.93
2022-08-27T15:39:36.858Z,67.12
2022-08-27T15:42:08.055Z,67.31
2022-08-27T15:44:40.500Z,67.24
2022-08-27T15:47:09.857Z,67.50
2022-08-27T15:49:41.183Z,67.51
2022-08-27T15:52:11.202Z,67.51
2022-08-27T15:54:49.403Z,67.77
2022-08-27T15:57:20.248Z,67.64
2022-08-27T15:59:51.662Z,67.58
2022-08-27T16:02:24.634Z,67.81
2022-08-27T16:04:58.143Z,67.82
2022-08-27T16:07:29.485Z,67.71
2022-08-27T16:10:00.606Z,67.61
2022-08-27T16:12:29.906Z,67.66
2022-08-27T16:14:59.209Z,67.79
2022-08-27T16:17:28.818Z,67.84
2022-08-27T16:19:58.321Z,68.04
2022-08-27T16:22:27.905Z,68.07
2022-08-27T16:24:57.161Z,68.37
2022-08-27T16:27:28.023Z,68.44
2022-08-27T16:30:00.127Z,68.56
2022-08-27T16:32:30.615Z,68.73
2022-08-27T16:35:04.151Z,68.84
2022-08-27T16:37:33.410Z,68.82
2022-08-27T16:40:02.921Z,68.93
2022-08-27T16:42:33.742Z,69.05
2022-08-27T16:45:03.873Z,69.25
2022-08-27T16:47:33.158Z,69.07
2022-08-27T16:50:24.235Z,69.04
2022-08-27T16:52:56.558Z,69.23
2022-08-27T16:55:27.317Z,69.34
2022-08-27T16:58:01.126Z,69.20
2022-08-27T17:00:31.125Z,69.37
2022-08-27T17:03:03.114Z,69.34
2022-08-27T17:05:34.863Z,69.28
2022-08-27T17:08:06.887Z,69.38
2022-08-27T17:10:47.141Z,69.63
2022-08-27T17:13:21.442Z,69.47
2022-08-27T17:15:58.281Z,69.57
2022-08-27T17:18:29.108Z,69.70
2022-08-27T17:21:03.910Z,70.11
2022-08-27T17:23:36.639Z,69.84
2022-08-27T17:26:14.454Z,70.09
2022-08-27T17:28:46.249Z,70.07
2022-08-27T17:31:26.123Z,69.89
2022-08-27T17:34:00.408Z,70.03
2022-08-27T17:36:31.746Z,69.80
2022-08-27T17:39:03.599Z,70.04
2022-08-27T17:41:43.807Z,70.24
2022-08-27T17:44:21.267Z,70.03
2022-08-27T17:46:50.839Z,70.11
2022-08-27T17:49:20.204Z,70.23
2022-08-27T17:51:55.617Z,70.51
2022-08-27T17:54:31.727Z,70.11
2022-08-27T17:57:01.815Z,70.24
2022-08-27T17:59:32.540Z,70.34
2022-08-27T18:02:05.482Z,70.30
2022-08-27T18:04:34.995Z,70.31
2022-08-27T18:07:04.666Z,70.48
2022-08-27T18:09:33.874Z,70.77
2022-08-27T18:12:03.092Z,70.49
2022-08-27T18:14:34.816Z,70.95
2022-08-27T18:17:04.528Z,70.83
2022-08-27T18:19:33.730Z,70.65
2022-08-27T18:22:06.775Z,70.76
2022-08-27T18:24:36.119Z,70.99
2022-08-27T18:27:05.994Z,70.86
2022-08-27T18:29:37.119Z,71.13
2022-08-27T18:32:06.704Z,71.29
2022-08-27T18:34:36.758Z,71.35
2022-08-27T18:37:10.439Z,71.20
2022-08-27T18:39:41.752Z,71.27
2022-08-27T18:42:12.375Z,71.27
2022-08-27T18:44:46.217Z,71.84
2022-08-27T18:47:20.791Z,72.01
2022-08-27T18:49:50.181Z,72.60
2022-08-27T18:52:25.644Z,72.26
2022-08-27T18:54:55.442Z,72.35
2022-08-27T18:57:25.537Z,72.47
2022-08-27T18:59:58.483Z,72.23
2022-08-27T19:02:28.459Z,72.31
2022-08-27T19:05:16.075Z,72.93
2022-08-27T19:07:48.512Z,72.62
2022-08-27T19:10:21.293Z,72.61
2022-08-27T19:12:50.810Z,72.90
2022-08-27T19:15:40.426Z,72.69
2022-08-27T19:18:11.063Z,73.49
2022-08-27T19:20:40.609Z,73.16
2022-08-27T19:23:09.998Z,73.25
2022-08-27T19:25:40.807Z,73.27
2022-08-27T19:28:11.841Z,73.36
2022-08-27T19:30:42.752Z,73.39
2022-08-27T19:33:12.755Z,73.26
2022-08-27T19:35:44.024Z,73.80
2022-08-27T19:38:14.725Z,73.26
2022-08-27T19:40:44.027Z,73.36
2022-08-27T19:43:13.188Z,73.16
2022-08-27T19:45:44.000Z,73.37
2022-08-27T19:48:14.722Z,73.60
2022-08-27T19:50:44.413Z,73.73
2022-08-27T19:53:15.144Z,73.16
2022-08-27T19:55:46.059Z,73.38
2022-08-27T19:58:18.150Z,74.02
2022-08-27T20:00:50.346Z,73.74
2022-08-27T20:03:19.864Z,73.63
2022-08-27T20:05:51.033Z,73.87
2022-08-27T20:08:20.775Z,73.65
2022-08-27T20:10:51.503Z,73.76
2022-08-27T20:13:20.886Z,74.43
2022-08-27T20:15:52.633Z,73.98
2022-08-27T20:18:23.588Z,73.89
2022-08-27T20:20:56.110Z,74.22
2022-08-27T20:23:25.344Z,73.80
2022-08-27T20:26:00.460Z,74.33
2022-08-27T20:28:39.694Z,74.39
2022-08-27T20:31:11.082Z,74.14
2022-08-27T20:33:41.129Z,73.89
2022-08-27T20:36:11.080Z,73.97
2022-08-27T20:38:40.666Z,74.64
2022-08-27T20:41:09.978Z,74.69
2022-08-27T20:43:39.386Z,74.57
2022-08-27T20:46:11.098Z,74.43
2022-08-27T20:48:40.542Z,74.13
2022-08-27T20:51:09.869Z,74.59
2022-08-27T20:53:39.169Z,74.51
2022-08-27T20:56:08.773Z,75.08
2022-08-27T20:58:54.590Z,74.78
2022-08-27T21:01:25.662Z,75.09
2022-08-27T21:03:55.247Z,74.92
2022-08-27T21:06:30.951Z,74.44
2022-08-27T21:09:03.641Z,74.77
2022-08-27T21:11:34.070Z,75.25
2022-08-27T21:14:04.342Z,74.93
2022-08-27T21:16:37.158Z,75.20
2022-08-27T21:19:06.507Z,74.91
2022-08-27T21:21:35.727Z,75.14
2022-08-27T21:24:05.907Z,75.24
2022-08-27T21:26:36.758Z,75.39
2022-08-27T21:29:07.218Z,75.29
2022-08-27T21:31:38.228Z,75.50
2022-08-27T21:34:07.731Z,75.74
2022-08-27T21:36:36.930Z,75.52
2022-08-27T21:39:06.268Z,75.68
2022-08-27T21:41:37.462Z,75.69
2022-08-27T21:44:06.989Z,76.23
2022-08-27T21:46:37.902Z,76.36
2022-08-27T21:49:08.189Z,75.91
2022-08-27T21:51:40.342Z,75.32
2022-08-27T21:54:09.799Z,76.06
2022-08-27T21:56:39.852Z,75.59
2022-08-27T21:59:08.990Z,75.48
2022-08-27T22:01:40.298Z,76.19
2022-08-27T22:04:09.543Z,75.87
2022-08-27T22:06:38.806Z,75.94
2022-08-27T22:09:08.218Z,75.96
2022-08-27T22:11:37.706Z,76.15
2022-08-27T22:14:09.015Z,75.91
2022-08-27T22:16:42.933Z,75.87
2022-08-27T22:19:12.287Z,75.75
2022-08-27T22:21:41.566Z,76.27
2022-08-27T22:24:10.849Z,76.01
2022-08-27T22:26:40.236Z,75.76
2022-08-27T22:29:09.843Z,75.49
2022-08-27T22:31:39.279Z,75.85
2022-08-27T22:34:15.684Z,76.09
2022-08-27T22:36:45.219Z,76.00
2022-08-27T22:39:14.387Z,75.89
2022-08-27T22:41:48.147Z,76.35
2022-08-27T22:44:19.375Z,76.34
2022-08-27T22:46:48.673Z,77.15
2022-08-27T22:49:20.213Z,77.16
2022-08-27T22:51:49.801Z,77.08
2022-08-27T22:54:19.051Z,77.34
2022-08-27T22:56:48.523Z,77.12
2022-08-27T22:59:17.712Z,77.09
2022-08-27T23:01:46.901Z,77.18
2022-08-27T23:04:16.474Z,77.15
2022-08-27T23:06:52.399Z,77.70
2022-08-27T23:09:21.662Z,77.24
2022-08-27T23:11:51.093Z,77.34
2022-08-27T23:14:20.235Z,77.33
2022-08-27T23:16:49.431Z,77.42
2022-08-27T23:19:18.644Z,77.69
2022-08-27T23:21:49.830Z,77.45
2022-08-27T23:24:19.351Z,77.91
2022-08-27T23:27:05.581Z,77.66
2022-08-27T23:29:36.285Z,77.97
2022-08-27T23:32:06.371Z,77.76
2022-08-27T23:34:35.580Z,78.01
2022-08-27T23:37:06.241Z,78.10
2022-08-27T23:39:35.420Z,78.26
2022-08-27T23:42:04.666Z,78.52
2022-08-27T23:44:34.204Z,78.26
2022-08-27T23:47:03.341Z,78.31
2022-08-27T23:49:32.695Z,78.45
2022-08-27T23:52:02.275Z,78.40
2022-08-27T23:54:34.002Z,78.69
2022-08-27T23:57:03.098Z,78.71
2022-08-27T23:59:33.090Z,78.65
